Time;durP1;ratioP1;P1;durP2;ratioP2;P2;SDS_P1;SDS_P2;PMS_P1;PMS_P2;Temp;Humidity;BMP_temperature;BMP_pressure;BME280_temperature;BME280_humidity;BME280_pressure;Samples;Min_cycle;Max_cycle;Signal;HPM_P1;HPM_P2
2022/07/19 00:02:00;;;;;;;10.38;2.40;;;;;;;25.49;51.67;100880.63;4978443;28;20043;-85
2022/07/19 00:04:26;;;;;;;11.82;2.70;;;;;;;25.49;51.31;100880.63;4981680;28;20031;-85
2022/07/19 00:06:54;;;;;;;5.43;2.72;;;;;;;25.51;50.98;100889.38;4992683;28;20256;-84
2022/07/19 00:09:21;;;;;;;7.95;2.75;;;;;;;25.49;50.93;100880.63;4979177;28;20039;-86
2022/07/19 00:11:46;;;;;;;9.38;2.40;;;;;;;25.44;51.33;100880.56;4979565;28;20113;-86
2022/07/19 00:14:12;;;;;;;10.38;2.70;;;;;;;25.42;51.26;100885.44;4978057;28;20039;-85
2022/07/19 00:16:38;;;;;;;7.10;2.38;;;;;;;25.48;50.69;100884.44;4977960;28;20042;-86
2022/07/19 00:19:03;;;;;;;7.13;2.60;;;;;;;25.40;50.49;100877.53;4949560;28;20094;-88
2022/07/19 00:21:29;;;;;;;7.95;2.20;;;;;;;25.41;50.63;100883.78;4958377;28;20146;-87
2022/07/19 00:23:54;;;;;;;10.70;2.85;;;;;;;25.52;50.43;100880.97;4958382;28;20043;-86
2022/07/19 00:26:20;;;;;;;8.25;2.80;;;;;;;25.51;51.04;100878.53;4957286;28;20122;-86
2022/07/19 00:28:46;;;;;;;8.93;2.58;;;;;;;25.42;51.70;100874.59;4958501;28;20049;-86
2022/07/19 00:31:11;;;;;;;5.30;2.72;;;;;;;25.39;52.85;100875.09;4957779;28;20039;-86
2022/07/19 00:33:37;;;;;;;10.65;2.95;;;;;;;25.42;52.85;100864.53;4957951;28;20051;-87
2022/07/19 00:36:03;;;;;;;10.90;3.10;;;;;;;25.36;53.07;100862.00;4958927;28;20101;-84
2022/07/19 00:38:28;;;;;;;8.82;2.65;;;;;;;25.27;53.22;100861.63;4962183;28;20107;-84
2022/07/19 00:40:54;;;;;;;5.15;2.75;;;;;;;25.18;53.14;100861.22;4966488;28;20094;-83
2022/07/19 00:43:19;;;;;;;7.70;2.30;;;;;;;25.22;53.20;100855.31;5009423;28;20070;-84
2022/07/19 00:45:47;;;;;;;5.93;2.42;;;;;;;25.26;53.49;100859.13;4993189;28;20098;-84
2022/07/19 00:48:13;;;;;;;10.18;2.55;;;;;;;25.15;54.19;100859.03;4991400;28;20037;-85
2022/07/19 00:50:38;;;;;;;9.60;2.90;;;;;;;25.05;55.16;100863.47;4976820;28;20484;-87
2022/07/19 00:53:05;;;;;;;7.40;3.00;;;;;;;24.99;55.56;100862.56;4976274;28;20053;-85
2022/07/19 00:55:33;;;;;;;4.10;2.42;;;;;;;24.94;56.32;100865.22;4959194;28;20047;-85
2022/07/19 00:58:00;;;;;;;10.40;2.70;;;;;;;24.93;56.54;100871.69;4959134;28;20067;-83
2022/07/19 01:00:32;;;;;;;6.93;2.63;;;;;;;24.76;57.69;100875.47;4992049;28;20527;-84
2022/07/19 01:02:58;;;;;;;5.72;2.53;;;;;;;24.66;58.03;100870.66;4977195;28;20495;-85
2022/07/19 01:05:24;;;;;;;8.88;2.35;;;;;;;24.53;58.57;100876.41;4977039;28;20050;-86
2022/07/19 01:07:50;;;;;;;7.70;2.45;;;;;;;24.36;59.32;100876.38;4991690;28;20503;-86
2022/07/19 01:10:16;;;;;;;8.15;2.50;;;;;;;24.24;59.76;100872.09;4976934;28;20031;-87
2022/07/19 01:12:42;;;;;;;11.73;2.70;;;;;;;24.18;60.07;100868.50;4959194;28;20031;-85
2022/07/19 01:15:28;;;;;;;9.07;3.15;;;;;;;24.09;60.69;100865.34;4976879;28;20373;-85
2022/07/19 01:17:53;;;;;;;7.47;2.30;;;;;;;24.11;60.30;100860.50;4958864;28;20492;-88
2022/07/19 01:20:20;;;;;;;11.68;3.25;;;;;;;24.18;60.65;100866.59;4976888;28;20034;-88
2022/07/19 01:26:12;;;;;;;8.70;3.28;;;;;;;24.10;60.18;100872.38;4997299;28;20046;-85
2022/07/19 01:28:38;;;;;;;8.82;2.90;;;;;;;24.16;59.91;100859.81;5000373;28;20026;-83
2022/07/19 01:31:04;;;;;;;5.10;2.70;;;;;;;24.17;60.06;100861.41;5000420;28;20038;-85
2022/07/19 01:33:30;;;;;;;4.75;2.70;;;;;;;24.17;60.15;100862.25;5012674;28;20070;-86
2022/07/19 01:35:55;;;;;;;8.07;2.83;;;;;;;24.21;60.09;100861.75;4980048;28;20037;-86
2022/07/19 01:38:22;;;;;;;8.07;2.78;;;;;;;24.15;60.34;100868.97;4961830;28;20038;-85
2022/07/19 01:40:48;;;;;;;6.32;3.05;;;;;;;24.03;60.93;100863.56;4979302;28;20174;-88
2022/07/19 01:43:14;;;;;;;11.38;2.67;;;;;;;24.11;60.77;100862.38;4980089;28;20038;-88
2022/07/19 01:45:39;;;;;;;5.97;2.75;;;;;;;24.09;60.64;100859.91;4962058;28;20027;-88
2022/07/19 01:48:07;;;;;;;6.28;2.55;;;;;;;24.18;60.45;100857.66;4979702;28;20360;-86
2022/07/19 01:50:36;;;;;;;3.75;2.35;;;;;;;24.09;60.55;100854.50;4979128;28;20034;-87
2022/07/19 01:53:02;;;;;;;7.63;2.90;;;;;;;23.95;61.13;100855.84;4980225;28;20027;-87
2022/07/19 01:55:27;;;;;;;5.97;2.80;;;;;;;24.00;61.29;100853.22;4997921;28;20061;-85
2022/07/19 01:57:53;;;;;;;7.38;3.03;;;;;;;23.91;61.94;100851.97;4996456;28;20027;-87
2022/07/19 02:00:19;;;;;;;7.97;2.72;;;;;;;23.85;62.39;100852.94;4994853;28;20043;-84
2022/07/19 02:02:45;;;;;;;9.23;2.95;;;;;;;23.86;62.89;100854.59;4984620;23;20053;-84
2022/07/19 02:05:14;;;;;;;6.50;2.72;;;;;;;23.86;62.11;100857.31;4976878;28;20047;-89
2022/07/19 02:07:42;;;;;;;8.57;2.55;;;;;;;23.94;62.02;100846.06;4969564;28;20039;-89
2022/07/19 02:10:08;;;;;;;5.05;2.58;;;;;;;24.05;61.91;100844.38;4979595;28;20563;-85
2022/07/19 02:12:34;;;;;;;8.68;3.17;;;;;;;24.03;61.83;100838.38;4977778;28;20027;-86
2022/07/19 02:15:03;;;;;;;7.38;2.40;;;;;;;24.03;60.70;100838.38;5115108;23;20041;-86
2022/07/19 02:17:29;;;;;;;6.78;3.05;;;;;;;24.06;60.85;100843.34;4978070;28;20034;-88
2022/07/19 02:19:54;;;;;;;6.40;3.10;;;;;;;24.01;60.62;100845.94;4959903;28;20698;-88
2022/07/19 02:22:20;;;;;;;6.93;2.92;;;;;;;24.02;60.66;100829.44;4977925;28;20073;-90
2022/07/19 02:24:46;;;;;;;4.28;2.60;;;;;;;24.09;61.30;100835.53;4978545;28;20039;-86
2022/07/19 02:27:12;;;;;;;7.50;3.13;;;;;;;24.28;60.24;100827.22;4976200;28;20512;-89
2022/07/19 02:29:38;;;;;;;10.70;3.20;;;;;;;24.07;60.44;100840.38;4975822;28;20031;-89
2022/07/19 02:32:04;;;;;;;8.77;3.13;;;;;;;23.79;61.47;100834.97;4976182;28;20038;-85
2022/07/19 02:34:30;;;;;;;5.00;2.38;;;;;;;23.62;63.53;100837.59;4958826;28;20377;-90
2022/07/19 02:36:55;;;;;;;7.45;3.10;;;;;;;23.49;63.64;100837.06;4958887;28;20274;-88
2022/07/19 02:39:21;;;;;;;7.53;3.10;;;;;;;23.17;64.66;100840.13;4976156;28;20038;-91
2022/07/19 02:41:46;;;;;;;12.30;3.13;;;;;;;22.96;66.07;100842.63;4957983;28;20039;-81
2022/07/19 02:44:12;;;;;;;5.55;2.97;;;;;;;22.73;67.72;100832.63;4975339;28;20034;-87
2022/07/19 02:46:38;;;;;;;5.55;3.20;;;;;;;22.81;66.99;100843.06;4975149;28;20122;-88
2022/07/19 02:49:03;;;;;;;10.32;2.83;;;;;;;22.89;66.61;100853.53;4974271;28;20030;-89
2022/07/19 02:51:31;;;;;;;3.80;2.78;;;;;;;22.83;67.66;100842.84;4974967;28;20030;-90
2022/07/19 02:53:57;;;;;;;6.55;3.22;;;;;;;22.74;67.14;100850.47;4957633;28;20397;-88
2022/07/19 02:56:22;;;;;;;8.88;3.13;;;;;;;22.67;66.20;100866.78;4974922;28;20027;-88
2022/07/19 02:58:48;;;;;;;5.85;3.33;;;;;;;22.72;66.03;100866.09;4975343;28;20085;-89
2022/07/19 03:07:14;;;;;;;4.93;3.33;;;;;;;22.72;66.07;100860.69;4994831;28;20410;-83
2022/07/19 03:09:47;;;;;;;8.23;3.72;;;;;;;22.78;65.81;100861.63;4994614;28;20491;-89
2022/07/19 03:12:12;;;;;;;10.80;3.40;;;;;;;22.82;65.81;100869.06;4996091;28;20034;-91
2022/07/19 03:14:38;;;;;;;10.98;4.10;;;;;;;22.81;65.16;100862.00;4995372;28;20506;-88
2022/07/19 03:17:03;;;;;;;12.65;4.00;;;;;;;22.79;65.73;100866.81;4979032;28;20043;-87
2022/07/19 03:19:29;;;;;;;13.00;4.60;;;;;;;22.79;66.16;100868.69;4996590;28;20023;-91
2022/07/19 03:21:58;;;;;;;11.85;5.45;;;;;;;22.90;65.51;100874.09;4997224;28;20034;-90
2022/07/19 03:24:23;;;;;;;12.95;5.70;;;;;;;22.99;65.62;100875.41;4985854;28;20116;-88
2022/07/19 03:26:49;;;;;;;18.95;6.22;;;;;;;22.93;66.18;100879.06;5008883;28;20038;-85
2022/07/19 03:29:15;;;;;;;11.50;6.05;;;;;;;22.95;65.51;100879.63;5013649;28;20045;-84
2022/07/19 03:31:43;;;;;;;15.77;5.85;;;;;;;22.94;65.63;100880.69;5017241;28;20038;-86
2022/07/19 03:34:08;;;;;;;15.02;6.10;;;;;;;22.89;66.60;100879.75;5016797;28;20114;-84
2022/07/19 03:36:34;;;;;;;12.68;6.38;;;;;;;22.88;66.55;100884.31;5003501;28;20043;-84
2022/07/19 03:39:00;;;;;;;16.80;5.97;;;;;;;22.82;66.72;100885.28;4982538;28;20042;-85
2022/07/19 03:41:25;;;;;;;13.35;6.63;;;;;;;22.75;66.99;100889.94;4999283;28;20394;-89
2022/07/19 03:43:51;;;;;;;16.13;6.65;;;;;;;22.86;66.61;100886.44;4998719;28;20038;-89
2022/07/19 03:46:19;;;;;;;9.52;5.93;;;;;;;22.80;66.87;100891.97;4996732;28;20034;-89
2022/07/19 03:48:46;;;;;;;11.38;6.40;;;;;;;22.77;67.51;100893.22;4978080;28;20505;-88
2022/07/19 03:51:15;;;;;;;12.85;6.60;;;;;;;22.73;67.13;100897.47;4996098;28;20438;-89
2022/07/19 03:53:45;;;;;;;10.98;6.63;;;;;;;22.81;66.98;100905.22;4996101;28;20393;-86
2022/07/19 03:56:10;;;;;;;14.32;6.90;;;;;;;22.83;66.88;100902.31;4995759;28;20041;-83
2022/07/19 03:58:37;;;;;;;13.68;6.63;;;;;;;22.85;66.94;100901.00;4996967;28;20034;-86
2022/07/19 04:01:02;;;;;;;15.02;6.57;;;;;;;22.83;67.21;100911.25;4986619;28;20037;-85
2022/07/19 04:03:28;;;;;;;14.73;7.65;;;;;;;22.78;66.70;100905.69;5006503;28;20030;-81
2022/07/19 04:05:54;;;;;;;18.25;6.90;;;;;;;22.80;67.41;100914.41;5002514;28;20042;-84
2022/07/19 04:08:20;;;;;;;18.77;6.80;;;;;;;22.78;67.15;100911.09;4982594;28;20146;-86
2022/07/19 04:10:47;;;;;;;19.83;6.60;;;;;;;22.72;67.89;100920.16;5000895;28;20042;-86
2022/07/19 04:13:13;;;;;;;13.60;6.03;;;;;;;22.67;68.36;100920.84;5005955;28;20062;-84
2022/07/19 04:15:38;;;;;;;10.02;5.18;;;;;;;22.50;68.52;100927.13;4994908;28;20054;-81
2022/07/19 04:18:04;;;;;;;19.00;5.97;;;;;;;22.35;67.95;100926.69;4997300;28;20039;-81
2022/07/19 04:20:30;;;;;;;17.75;5.93;;;;;;;22.26;68.44;100926.19;4996817;28;20043;-83
2022/07/19 04:22:56;;;;;;;7.72;5.07;;;;;;;22.26;68.71;100941.56;5014034;28;20054;-82
2022/07/19 04:25:22;;;;;;;8.95;5.28;;;;;;;22.25;68.53;100934.53;5015520;28;20442;-81
2022/07/19 04:27:48;;;;;;;14.20;4.50;;;;;;;22.33;67.30;100945.00;5011707;28;20034;-87
2022/07/19 04:30:13;;;;;;;10.32;4.93;;;;;;;22.30;66.82;100942.78;4999901;28;20034;-86
2022/07/19 04:32:39;;;;;;;9.98;4.60;;;;;;;22.34;66.44;100942.06;4998742;28;20121;-85
2022/07/19 04:35:07;;;;;;;13.27;4.38;;;;;;;22.36;67.00;100939.16;4999153;28;20070;-85
2022/07/19 04:37:32;;;;;;;17.42;5.20;;;;;;;22.39;66.97;100944.09;5001688;28;20498;-85
2022/07/19 04:39:59;;;;;;;13.60;4.47;;;;;;;22.40;66.69;100945.75;5003427;28;20048;-81
2022/07/19 04:42:24;;;;;;;10.50;4.93;;;;;;;22.46;66.88;100951.06;5006081;28;20529;-84
2022/07/19 04:44:50;;;;;;;14.48;4.45;;;;;;;22.55;66.50;100955.06;5004666;28;20085;-82
2022/07/19 04:47:18;;;;;;;12.07;4.90;;;;;;;22.68;66.70;100956.78;5004643;28;20454;-82
2022/07/19 04:49:46;;;;;;;19.20;5.03;;;;;;;22.61;66.70;100958.72;5003856;28;20045;-84
2022/07/19 04:52:11;;;;;;;12.40;5.13;;;;;;;22.73;65.84;100951.53;5003803;28;20102;-84
2022/07/19 04:54:37;;;;;;;15.23;4.93;;;;;;;22.72;66.74;100955.28;5006571;28;20038;-84
2022/07/19 04:57:03;;;;;;;13.23;5.05;;;;;;;22.87;66.13;100952.94;5006487;28;20065;-84
2022/07/19 04:59:32;;;;;;;20.67;4.53;;;;;;;22.94;66.20;100956.38;5001188;28;20042;-84
2022/07/19 05:01:57;;;;;;;11.50;5.00;;;;;;;23.15;65.39;100960.41;5002017;28;20034;-83
2022/07/19 05:04:23;;;;;;;10.60;5.50;;;;;;;23.15;65.11;100955.00;5001627;28;20030;-87
2022/07/19 05:06:56;;;;;;;11.40;5.10;;;;;;;23.14;65.29;100956.88;5003990;28;20054;-83
2022/07/19 05:09:26;;;;;;;12.77;5.07;;;;;;;23.15;65.44;100955.81;5007156;28;20042;-85
2022/07/19 05:11:53;;;;;;;14.75;5.63;;;;;;;23.12;64.96;100959.00;4986588;28;20041;-87
2022/07/19 05:14:22;;;;;;;21.70;5.40;;;;;;;23.17;64.71;100964.50;4990022;28;20018;-82
2022/07/19 05:16:49;;;;;;;17.52;5.18;;;;;;;23.25;63.86;100960.66;5009797;28;20066;-91
2022/07/19 05:19:28;;;;;;;13.68;4.82;;;;;;;23.48;63.35;100954.44;5012178;28;20034;-83
2022/07/19 05:21:55;;;;;;;10.05;4.30;;;;;;;23.60;62.84;100953.38;4994665;28;20026;-87
2022/07/19 05:24:26;;;;;;;19.27;4.90;;;;;;;23.69;62.69;100953.84;5004928;28;20034;-89
2022/07/19 05:26:58;;;;;;;12.88;5.07;;;;;;;23.79;61.95;100954.06;5010112;28;20037;-90
2022/07/19 05:29:30;;;;;;;21.30;5.97;;;;;;;23.88;61.28;100955.34;5008834;28;20474;-87
2022/07/19 05:31:58;;;;;;;9.75;4.97;;;;;;;23.93;61.54;100958.13;5010113;28;20041;-88
2022/07/19 05:34:26;;;;;;;13.98;4.85;;;;;;;23.91;61.35;100964.84;4991627;28;20038;-90
2022/07/19 05:36:52;;;;;;;8.70;4.68;;;;;;;23.78;61.47;100963.25;4984443;28;20038;-89
2022/07/19 05:39:18;;;;;;;12.55;4.15;;;;;;;23.82;62.04;100964.41;4998975;28;20431;-87
2022/07/19 05:41:44;;;;;;;13.15;4.55;;;;;;;24.00;61.38;100969.66;4982757;28;20038;-86
2022/07/19 05:44:10;;;;;;;13.35;4.35;;;;;;;24.17;60.82;100965.16;4999115;28;20448;-86
2022/07/19 05:46:40;;;;;;;13.70;4.18;;;;;;;24.26;60.55;100964.81;4999627;28;20117;-89
2022/07/19 05:49:08;;;;;;;28.50;5.80;;;;;;;24.36;60.45;100965.00;4982636;28;20062;-88
2022/07/19 05:51:36;;;;;;;12.18;5.55;;;;;;;24.59;58.99;100968.41;4980967;28;20034;-86
2022/07/19 05:54:02;;;;;;;14.13;5.32;;;;;;;24.79;58.92;100969.88;4998877;28;20038;-88
2022/07/19 05:56:28;;;;;;;15.55;5.38;;;;;;;24.89;57.67;100973.56;4997049;28;20038;-88
2022/07/19 05:58:54;;;;;;;13.30;5.03;;;;;;;24.93;57.72;100977.44;4996756;28;20026;-87
2022/07/19 06:01:22;;;;;;;20.70;5.15;;;;;;;25.16;57.44;100980.00;4996468;28;20035;-87
2022/07/19 06:03:53;;;;;;;12.35;4.95;;;;;;;25.31;55.47;100986.75;4995703;28;20084;-88
2022/07/19 06:06:20;;;;;;;15.73;5.70;;;;;;;25.38;55.39;100985.53;4996078;28;20038;-88
2022/07/19 06:08:47;;;;;;;9.38;5.63;;;;;;;25.41;54.92;100985.03;4995721;28;20038;-86
2022/07/19 06:11:14;;;;;;;14.30;5.32;;;;;;;25.64;53.74;100975.88;4994836;28;20041;-84
2022/07/19 06:13:40;;;;;;;13.23;4.78;;;;;;;25.85;53.78;100977.81;4994526;28;20112;-85
2022/07/19 06:16:09;;;;;;;11.98;4.75;;;;;;;26.46;51.60;100978.56;4994551;28;20077;-84
2022/07/19 06:18:35;;;;;;;20.02;4.88;;;;;;;26.94;50.17;100986.69;4994913;28;20472;-83
2022/07/19 06:21:03;;;;;;;12.80;4.80;;;;;;;27.13;49.43;100978.97;4999503;28;20030;-86
2022/07/19 06:23:28;;;;;;;19.45;4.85;;;;;;;27.30;48.09;100984.25;4993978;28;20030;-86
2022/07/19 06:25:54;;;;;;;13.23;4.55;;;;;;;27.98;47.35;100978.69;4994553;28;20038;-84
2022/07/19 06:28:20;;;;;;;10.00;4.00;;;;;;;28.00;47.06;100982.00;4994301;28;20542;-83
2022/07/19 06:30:45;;;;;;;16.67;4.97;;;;;;;28.08;46.62;100977.94;4997290;28;20038;-80
2022/07/19 06:33:11;;;;;;;12.77;4.38;;;;;;;28.95;44.61;100986.09;4993976;28;20034;-84
2022/07/19 06:35:36;;;;;;;10.77;3.90;;;;;;;30.03;42.78;100981.03;4993869;28;20073;-84
2022/07/19 06:38:02;;;;;;;14.02;5.68;;;;;;;29.61;42.25;100988.78;4994046;28;20034;-89
2022/07/19 06:40:28;;;;;;;13.95;4.72;;;;;;;30.26;41.48;100983.09;4994346;28;20034;-84
2022/07/19 06:42:53;;;;;;;14.18;4.68;;;;;;;31.01;39.86;100983.78;4994105;28;20045;-81
2022/07/19 06:45:19;;;;;;;17.00;4.63;;;;;;;32.04;38.06;100983.31;4994313;28;20042;-84
2022/07/19 06:47:44;;;;;;;17.38;4.90;;;;;;;30.81;39.96;100986.63;4976512;28;20030;-80
2022/07/19 06:50:10;;;;;;;16.02;4.65;;;;;;;31.01;39.52;100986.50;4994610;28;20029;-84
2022/07/19 06:52:36;;;;;;;13.40;4.75;;;;;;;30.40;39.88;100977.00;4993761;28;20368;-81
2022/07/19 06:55:01;;;;;;;14.13;4.40;;;;;;;31.06;38.76;100972.75;4994031;28;20084;-82
2022/07/19 06:57:27;;;;;;;23.10;4.93;;;;;;;32.09;36.70;100975.00;4993953;28;20066;-83
2022/07/19 06:59:52;;;;;;;17.40;4.95;;;;;;;31.46;38.00;100982.53;4994065;28;20105;-82
2022/07/19 07:02:18;;;;;;;13.82;3.90;;;;;;;31.56;37.98;100992.59;4973724;28;20163;-80
2022/07/19 07:04:43;;;;;;;12.98;4.78;;;;;;;31.11;38.54;100993.81;4975648;28;20061;-82
2022/07/19 07:07:09;;;;;;;15.75;4.53;;;;;;;30.67;39.95;100985.63;4991897;28;20069;-83
2022/07/19 07:09:34;;;;;;;11.48;4.15;;;;;;;31.69;37.43;100980.94;4993174;28;20538;-84
2022/07/19 07:11:59;;;;;;;12.27;4.45;;;;;;;30.85;38.74;100981.41;4995711;28;20038;-83
2022/07/19 07:14:25;;;;;;;13.35;3.88;;;;;;;31.85;36.07;100987.91;4994007;28;20089;-83
2022/07/19 07:16:54;;;;;;;13.43;5.18;;;;;;;29.33;41.20;100983.94;4994103;28;20140;-82
2022/07/19 07:19:23;;;;;;;13.20;4.75;;;;;;;29.59;42.12;100977.31;4996585;28;20041;-83
2022/07/19 07:21:52;;;;;;;13.73;5.93;;;;;;;30.39;40.19;100981.69;4992862;28;20062;-83
2022/07/19 07:24:18;;;;;;;15.80;5.00;;;;;;;31.25;38.40;100981.09;4994444;28;20045;-82
2022/07/19 07:26:43;;;;;;;12.23;4.28;;;;;;;31.53;37.47;100987.69;5015763;28;20030;-87
2022/07/19 07:29:13;;;;;;;11.80;4.35;;;;;;;31.39;37.45;100990.25;5023069;28;20562;-88
2022/07/19 07:31:38;;;;;;;7.90;4.65;;;;;;;31.99;36.36;100996.22;4991494;28;20313;-88
2022/07/19 07:34:04;;;;;;;13.18;5.63;;;;;;;31.83;36.77;100997.50;5014495;28;20057;-84
2022/07/19 07:36:33;;;;;;;12.23;4.95;;;;;;;31.51;38.19;100992.66;5031623;28;20022;-83
2022/07/19 07:38:58;;;;;;;17.50;5.40;;;;;;;32.44;35.99;100986.63;5041106;28;20022;-85
2022/07/19 07:41:24;;;;;;;22.63;5.40;;;;;;;32.50;36.00;100994.47;5026325;28;20077;-90
2022/07/19 07:43:49;;;;;;;16.73;5.72;;;;;;;32.16;36.66;100989.19;5023115;28;20495;-85
2022/07/19 07:46:15;;;;;;;21.25;5.05;;;;;;;31.90;36.39;100987.84;5002496;28;20066;-88
2022/07/19 07:48:44;;;;;;;10.63;4.20;;;;;;;31.97;36.02;100993.78;4999748;28;20042;-90
2022/07/19 07:51:09;;;;;;;14.35;4.70;;;;;;;32.47;34.11;100986.84;4988339;28;20033;-87
2022/07/19 07:53:35;;;;;;;10.98;3.95;;;;;;;33.08;33.12;100981.22;5007540;28;20133;-86
2022/07/19 07:56:00;;;;;;;9.02;4.30;;;;;;;32.27;33.08;100987.13;4997966;28;22080;-91
2022/07/19 07:58:26;;;;;;;10.00;4.57;;;;;;;31.98;34.24;100989.94;5001476;28;20483;-91
2022/07/19 08:00:51;;;;;;;9.25;3.85;;;;;;;31.70;34.32;100975.19;5009536;28;20048;-88
2022/07/19 08:03:17;;;;;;;11.65;3.85;;;;;;;32.24;34.09;100972.06;5003050;28;20130;-84
2022/07/19 08:05:47;;;;;;;10.95;4.50;;;;;;;32.08;34.24;100978.88;4998299;28;20039;-86
2022/07/19 08:08:13;;;;;;;6.32;3.35;;;;;;;32.59;32.61;100975.44;5011533;28;20038;-83
2022/07/19 08:10:39;;;;;;;13.13;4.00;;;;;;;32.58;32.84;100973.81;4995336;28;20037;-88
2022/07/19 08:13:05;;;;;;;17.17;3.33;;;;;;;31.99;33.18;100982.50;4975009;28;20062;-87
2022/07/19 08:15:35;;;;;;;11.88;2.85;;;;;;;32.06;30.65;100972.84;4988393;28;20450;-83
2022/07/19 08:18:00;;;;;;;4.10;2.10;;;;;;;32.15;30.39;100976.56;4992163;28;20061;-85
2022/07/19 08:20:26;;;;;;;8.77;2.83;;;;;;;32.49;30.35;100978.28;4979215;28;20457;-85
2022/07/19 08:22:51;;;;;;;8.93;2.50;;;;;;;32.65;29.40;100974.25;4996680;28;20037;-85
2022/07/19 08:25:17;;;;;;;8.85;2.67;;;;;;;32.17;30.59;100966.13;4996438;28;20042;-84
2022/07/19 08:27:46;;;;;;;8.77;2.67;;;;;;;32.75;29.09;100972.16;4995751;28;20082;-85
2022/07/19 08:30:13;;;;;;;5.57;2.20;;;;;;;32.23;28.81;100962.19;4976008;28;20050;-84
2022/07/19 08:32:39;;;;;;;5.47;2.00;;;;;;;32.71;28.19;100971.13;4996467;28;20026;-83
2022/07/19 08:35:08;;;;;;;9.27;2.20;;;;;;;32.47;27.77;100964.06;4996292;28;20046;-82
2022/07/19 08:37:35;;;;;;;9.07;2.30;;;;;;;32.76;26.86;100967.47;4996311;28;20093;-81
2022/07/19 08:40:01;;;;;;;5.88;2.40;;;;;;;32.85;26.55;100959.41;4996282;28;20101;-83
2022/07/19 08:42:27;;;;;;;14.98;2.30;;;;;;;32.37;29.52;100958.72;4996195;28;20030;-85
2022/07/19 08:44:54;;;;;;;9.15;2.45;;;;;;;32.94;29.47;100963.91;4996068;28;20057;-84
2022/07/19 08:47:21;;;;;;;13.13;2.58;;;;;;;32.99;28.74;100960.25;4994800;28;20034;-86
2022/07/19 08:49:48;;;;;;;12.40;2.13;;;;;;;32.84;28.99;100955.84;4995541;28;20033;-85
2022/07/19 08:52:15;;;;;;;8.48;2.08;;;;;;;33.19;27.70;100963.50;4995502;28;20034;-86
2022/07/19 08:54:41;;;;;;;8.60;2.15;;;;;;;32.53;27.57;100963.69;4995822;28;20042;-84
2022/07/19 08:59:51;;;;;;;5.47;2.15;;;;;;;32.89;27.84;100955.72;4996096;28;20034;-81
2022/07/19 09:02:17;;;;;;;6.30;2.20;;;;;;;32.79;27.64;100953.16;4997347;28;20387;-83
2022/07/19 09:04:43;;;;;;;6.07;2.05;;;;;;;33.14;26.88;100962.78;4997214;28;20030;-84
2022/07/19 09:07:08;;;;;;;9.70;2.38;;;;;;;33.73;25.83;100964.72;4996018;28;20081;-86
2022/07/19 09:09:36;;;;;;;6.35;2.00;;;;;;;33.45;26.43;100963.84;4996432;28;20112;-84
2022/07/19 09:12:04;;;;;;;8.77;2.05;;;;;;;33.58;26.16;100962.22;4978475;28;20030;-85
2022/07/19 09:14:36;;;;;;;9.23;1.80;;;;;;;34.22;25.76;100966.72;4996110;28;20038;-84
2022/07/19 09:17:16;;;;;;;7.97;1.80;;;;;;;33.92;25.81;100961.84;4995664;28;20038;-83
2022/07/19 09:19:44;;;;;;;6.82;1.45;;;;;;;34.12;25.23;100956.75;4995726;28;20034;-82
2022/07/19 09:22:12;;;;;;;5.50;2.03;;;;;;;33.91;25.25;100961.00;4996734;28;20395;-83
2022/07/19 09:24:42;;;;;;;8.27;2.03;;;;;;;33.49;26.02;100953.03;4996355;28;20042;-83
2022/07/19 09:27:10;;;;;;;4.70;1.90;;;;;;;33.98;25.61;100961.41;4978262;28;20403;-85
2022/07/19 09:29:39;;;;;;;6.53;1.80;;;;;;;35.06;24.80;100953.19;4996033;28;20038;-87
2022/07/19 09:32:12;;;;;;;5.20;1.90;;;;;;;34.80;24.99;100954.94;4995768;28;20042;-85
2022/07/19 09:34:53;;;;;;;6.57;1.90;;;;;;;34.25;24.97;100950.41;4995536;28;20057;-83
2022/07/19 09:37:21;;;;;;;8.52;1.95;;;;;;;34.17;24.89;100953.88;4996663;28;20116;-85
2022/07/19 09:39:52;;;;;;;7.40;1.67;;;;;;;34.60;24.26;100956.22;4998463;28;20379;-84
2022/07/19 09:42:37;;;;;;;4.13;1.52;;;;;;;34.26;24.48;100943.78;5000779;28;20034;-86
2022/07/19 09:45:11;;;;;;;3.53;1.48;;;;;;;34.09;24.61;100951.84;5008182;28;20034;-84
2022/07/19 09:47:42;;;;;;;5.72;1.80;;;;;;;34.11;24.55;100949.63;5011857;28;20039;-85
2022/07/19 09:50:16;;;;;;;4.75;1.80;;;;;;;34.91;24.12;100940.59;5010790;28;20058;-84
2022/07/19 09:52:49;;;;;;;7.00;1.65;;;;;;;34.58;23.77;100947.44;5011052;28;20041;-83
2022/07/19 09:55:20;;;;;;;4.25;1.52;;;;;;;34.58;24.14;100944.69;4987451;28;20043;-83
2022/07/19 09:57:48;;;;;;;7.07;1.65;;;;;;;34.95;23.59;100941.59;4986344;28;20038;-83
2022/07/19 10:00:19;;;;;;;6.03;1.35;;;;;;;35.27;23.65;100935.81;5009776;28;20034;-83
2022/07/19 10:02:49;;;;;;;4.87;1.90;;;;;;;34.96;24.69;100932.22;5011868;28;20065;-85
2022/07/19 10:05:15;;;;;;;6.13;1.60;;;;;;;34.40;25.29;100929.16;5003020;28;20050;-81
2022/07/19 10:07:41;;;;;;;8.02;1.60;;;;;;;34.52;25.21;100921.16;4999771;28;20042;-81
2022/07/19 10:10:30;;;;;;;4.50;1.88;;;;;;;34.43;25.20;100923.88;4999297;28;20035;-84
2022/07/19 10:12:57;;;;;;;2.83;1.58;;;;;;;34.24;25.16;100918.50;4979364;28;20042;-84
2022/07/19 10:15:25;;;;;;;5.32;1.58;;;;;;;34.07;25.30;100915.56;4999416;28;20046;-83
2022/07/19 10:18:00;;;;;;;8.13;1.80;;;;;;;33.92;25.93;100915.06;4997635;28;20031;-86
2022/07/19 10:20:28;;;;;;;5.85;1.80;;;;;;;34.60;25.31;100917.69;4996464;28;20483;-84
2022/07/19 10:22:57;;;;;;;10.23;1.85;;;;;;;34.96;24.75;100918.44;4965805;28;20467;-86
2022/07/19 10:25:23;;;;;;;9.10;1.60;;;;;;;34.76;24.74;100918.97;4999075;28;20512;-83
2022/07/19 10:27:54;;;;;;;8.45;1.58;;;;;;;34.82;24.77;100914.94;5000374;28;20183;-85
2022/07/19 10:30:23;;;;;;;3.55;1.70;;;;;;;34.50;24.85;100923.44;5000918;28;20038;-87
2022/07/19 10:32:50;;;;;;;3.22;1.50;;;;;;;34.40;24.93;100907.16;5006565;28;20038;-85
2022/07/19 10:35:16;;;;;;;7.75;1.67;;;;;;;34.62;24.79;100905.25;4984179;28;20049;-86
2022/07/19 10:37:44;;;;;;;5.55;1.60;;;;;;;34.68;24.03;100917.75;4999796;28;20026;-84
2022/07/19 10:40:10;;;;;;;17.58;1.50;;;;;;;34.46;24.40;100898.47;5003052;28;20042;-85
2022/07/19 10:42:36;;;;;;;3.15;1.40;;;;;;;34.46;24.57;100905.91;4984244;28;20030;-87
2022/07/19 10:45:04;;;;;;;10.60;1.98;;;;;;;34.26;24.95;100908.00;5001995;28;20037;-84
2022/07/19 10:47:37;;;;;;;5.85;1.33;;;;;;;34.32;24.58;100910.63;5000338;28;20034;-84
2022/07/19 10:50:08;;;;;;;3.20;1.73;;;;;;;34.24;24.08;100910.25;4981143;28;20410;-83
2022/07/19 10:52:42;;;;;;;11.07;1.98;;;;;;;34.27;23.93;100895.06;4999125;28;20046;-83
2022/07/19 10:55:17;;;;;;;6.80;1.60;;;;;;;34.96;23.74;100903.84;4995213;28;20121;-87
2022/07/19 10:58:07;;;;;;;3.65;1.75;;;;;;;34.64;24.24;100897.47;4987725;28;20042;-84
2022/07/19 11:00:48;;;;;;;4.20;1.60;;;;;;;34.80;24.37;100895.16;4992362;28;20034;-83
2022/07/19 11:03:22;;;;;;;7.03;1.50;;;;;;;34.96;23.78;100888.13;4994413;28;20026;-86
2022/07/19 11:05:56;;;;;;;8.73;1.55;;;;;;;35.00;24.09;100894.63;5005688;28;20077;-83
2022/07/19 11:08:32;;;;;;;4.13;1.50;;;;;;;35.03;24.24;100883.00;4976900;28;20372;-84
2022/07/19 11:11:09;;;;;;;4.13;1.17;;;;;;;35.07;23.30;100883.13;4995039;28;20510;-86
2022/07/19 11:13:36;;;;;;;2.70;1.55;;;;;;;34.60;23.96;100890.16;5006760;28;20042;-84
2022/07/19 11:16:03;;;;;;;5.65;1.30;;;;;;;34.65;24.04;100873.50;4986239;28;20121;-85
2022/07/19 11:18:29;;;;;;;14.52;1.20;;;;;;;34.42;24.49;100871.84;5009152;28;20045;-84
2022/07/19 11:21:04;;;;;;;11.00;1.83;;;;;;;35.02;24.63;100875.03;4997352;28;20034;-84
2022/07/19 11:23:35;;;;;;;5.53;1.50;;;;;;;35.08;23.84;100869.06;5008581;28;20121;-85
2022/07/19 11:26:18;;;;;;;3.42;1.30;;;;;;;35.11;23.83;100857.44;4978774;28;20475;-84
2022/07/19 11:28:45;;;;;;;5.00;1.50;;;;;;;34.92;24.59;100858.75;5000249;28;20046;-84
2022/07/19 11:31:15;;;;;;;3.88;1.40;;;;;;;34.97;24.24;100848.41;4976184;28;20030;-84
2022/07/19 11:33:43;;;;;;;10.87;1.50;;;;;;;34.67;24.47;100863.00;4994050;28;20053;-83
2022/07/19 11:36:10;;;;;;;6.70;1.30;;;;;;;34.37;25.23;100847.22;4994336;28;20073;-85